sensor_id;sensor_type;location;lat;lon;timestamp;P1;durP1;ratioP1;P2;durP2;ratioP2
27893;SDS011;15240;50.812;4.792;2023-12-22T00:00:41;16.43;;;3.43;;
27893;SDS011;15240;50.812;4.792;2023-12-22T00:03:07;12.20;;;3.20;;
27893;SDS011;15240;50.812;4.792;2023-12-22T00:05:33;17.13;;;3.73;;
27893;SDS011;15240;50.812;4.792;2023-12-22T00:07:59;16.47;;;3.73;;
27893;SDS011;15240;50.812;4.792;2023-12-22T00:10:25;16.67;;;2.97;;
27893;SDS011;15240;50.812;4.792;2023-12-22T00:12:51;20.87;;;3.90;;
27893;SDS011;15240;50.812;4.792;2023-12-22T00:15:17;17.03;;;3.70;;
27893;SDS011;15240;50.812;4.792;2023-12-22T00:17:43;18.73;;;3.90;;
27893;SDS011;15240;50.812;4.792;2023-12-22T00:20:09;19.53;;;3.80;;
27893;SDS011;15240;50.812;4.792;2023-12-22T00:22:38;16.50;;;2.90;;
27893;SDS011;15240;50.812;4.792;2023-12-22T00:25:04;20.70;;;3.67;;
27893;SDS011;15240;50.812;4.792;2023-12-22T00:27:30;18.30;;;4.00;;
27893;SDS011;15240;50.812;4.792;2023-12-22T00:29:56;17.77;;;3.77;;
27893;SDS011;15240;50.812;4.792;2023-12-22T00:32:22;15.87;;;3.07;;
27893;SDS011;15240;50.812;4.792;2023-12-22T00:34:48;16.97;;;3.30;;
27893;SDS011;15240;50.812;4.792;2023-12-22T00:37:15;20.47;;;3.07;;
27893;SDS011;15240;50.812;4.792;2023-12-22T00:39:41;16.90;;;3.90;;
27893;SDS011;15240;50.812;4.792;2023-12-22T00:42:07;14.47;;;3.20;;
27893;SDS011;15240;50.812;4.792;2023-12-22T00:44:33;16.73;;;3.07;;
27893;SDS011;15240;50.812;4.792;2023-12-22T00:46:59;14.73;;;3.00;;
27893;SDS011;15240;50.812;4.792;2023-12-22T00:49:25;13.47;;;2.57;;
27893;SDS011;15240;50.812;4.792;2023-12-22T00:51:51;14.83;;;3.00;;
27893;SDS011;15240;50.812;4.792;2023-12-22T00:54:17;15.70;;;2.70;;
27893;SDS011;15240;50.812;4.792;2023-12-22T00:56:43;11.50;;;2.77;;
27893;SDS011;15240;50.812;4.792;2023-12-22T00:59:09;14.10;;;2.60;;
27893;SDS011;15240;50.812;4.792;2023-12-22T01:01:35;14.23;;;2.70;;
27893;SDS011;15240;50.812;4.792;2023-12-22T01:04:01;13.17;;;3.17;;
27893;SDS011;15240;50.812;4.792;2023-12-22T01:06:28;20.40;;;4.07;;
27893;SDS011;15240;50.812;4.792;2023-12-22T01:08:54;9.03;;;2.53;;
27893;SDS011;15240;50.812;4.792;2023-12-22T01:11:20;17.87;;;3.33;;
27893;SDS011;15240;50.812;4.792;2023-12-22T01:13:46;14.23;;;3.27;;
27893;SDS011;15240;50.812;4.792;2023-12-22T01:16:12;16.00;;;3.83;;
27893;SDS011;15240;50.812;4.792;2023-12-22T01:18:40;18.03;;;3.47;;
27893;SDS011;15240;50.812;4.792;2023-12-22T01:21:08;17.17;;;3.33;;
27893;SDS011;15240;50.812;4.792;2023-12-22T01:23:34;18.10;;;3.53;;
27893;SDS011;15240;50.812;4.792;2023-12-22T01:26:00;21.77;;;3.97;;
27893;SDS011;15240;50.812;4.792;2023-12-22T01:28:26;15.87;;;3.13;;
27893;SDS011;15240;50.812;4.792;2023-12-22T01:30:52;18.57;;;3.10;;
27893;SDS011;15240;50.812;4.792;2023-12-22T01:33:18;21.87;;;3.27;;
27893;SDS011;15240;50.812;4.792;2023-12-22T01:35:44;13.93;;;3.20;;
27893;SDS011;15240;50.812;4.792;2023-12-22T01:38:10;17.33;;;3.00;;
27893;SDS011;15240;50.812;4.792;2023-12-22T01:40:36;16.40;;;3.13;;
27893;SDS011;15240;50.812;4.792;2023-12-22T01:43:03;14.73;;;3.23;;
27893;SDS011;15240;50.812;4.792;2023-12-22T01:45:29;24.67;;;4.20;;
27893;SDS011;15240;50.812;4.792;2023-12-22T01:47:55;18.93;;;3.57;;
27893;SDS011;15240;50.812;4.792;2023-12-22T01:50:21;18.43;;;3.43;;
27893;SDS011;15240;50.812;4.792;2023-12-22T01:52:47;16.73;;;3.67;;
27893;SDS011;15240;50.812;4.792;2023-12-22T01:55:13;22.63;;;4.07;;
27893;SDS011;15240;50.812;4.792;2023-12-22T01:57:40;23.47;;;3.80;;
27893;SDS011;15240;50.812;4.792;2023-12-22T02:00:07;21.67;;;4.00;;
27893;SDS011;15240;50.812;4.792;2023-12-22T02:02:34;18.17;;;3.87;;
27893;SDS011;15240;50.812;4.792;2023-12-22T02:05:00;18.43;;;4.13;;
27893;SDS011;15240;50.812;4.792;2023-12-22T02:07:26;18.70;;;4.13;;
27893;SDS011;15240;50.812;4.792;2023-12-22T02:09:52;20.43;;;4.00;;
27893;SDS011;15240;50.812;4.792;2023-12-22T02:12:18;19.77;;;3.97;;
27893;SDS011;15240;50.812;4.792;2023-12-22T02:14:44;18.17;;;3.73;;
27893;SDS011;15240;50.812;4.792;2023-12-22T02:19:49;15.30;;;3.47;;
27893;SDS011;15240;50.812;4.792;2023-12-22T02:22:16;17.83;;;3.80;;
27893;SDS011;15240;50.812;4.792;2023-12-22T02:24:42;21.47;;;4.13;;
27893;SDS011;15240;50.812;4.792;2023-12-22T02:29:43;20.97;;;4.20;;
27893;SDS011;15240;50.812;4.792;2023-12-22T02:32:14;22.50;;;4.47;;
27893;SDS011;15240;50.812;4.792;2023-12-22T02:34:43;17.37;;;3.10;;
27893;SDS011;15240;50.812;4.792;2023-12-22T02:37:12;17.43;;;3.47;;
27893;SDS011;15240;50.812;4.792;2023-12-22T02:39:38;24.67;;;4.27;;
27893;SDS011;15240;50.812;4.792;2023-12-22T02:42:05;16.53;;;3.77;;
27893;SDS011;15240;50.812;4.792;2023-12-22T02:44:31;19.03;;;3.33;;
27893;SDS011;15240;50.812;4.792;2023-12-22T02:46:57;18.77;;;3.67;;
27893;SDS011;15240;50.812;4.792;2023-12-22T02:49:23;22.07;;;4.13;;
27893;SDS011;15240;50.812;4.792;2023-12-22T02:51:49;24.53;;;4.43;;
27893;SDS011;15240;50.812;4.792;2023-12-22T02:54:16;16.77;;;3.60;;
27893;SDS011;15240;50.812;4.792;2023-12-22T02:56:42;17.17;;;3.93;;
27893;SDS011;15240;50.812;4.792;2023-12-22T02:59:08;18.27;;;3.77;;
27893;SDS011;15240;50.812;4.792;2023-12-22T03:01:34;18.37;;;4.07;;
27893;SDS011;15240;50.812;4.792;2023-12-22T03:04:00;17.10;;;3.67;;
27893;SDS011;15240;50.812;4.792;2023-12-22T03:06:26;18.03;;;3.27;;
27893;SDS011;15240;50.812;4.792;2023-12-22T03:08:52;14.73;;;3.43;;
27893;SDS011;15240;50.812;4.792;2023-12-22T03:11:18;16.37;;;3.27;;
27893;SDS011;15240;50.812;4.792;2023-12-22T03:13:44;21.23;;;3.00;;
27893;SDS011;15240;50.812;4.792;2023-12-22T03:16:10;13.53;;;2.90;;
27893;SDS011;15240;50.812;4.792;2023-12-22T03:18:40;13.60;;;3.07;;
27893;SDS011;15240;50.812;4.792;2023-12-22T03:21:06;11.10;;;2.83;;
27893;SDS011;15240;50.812;4.792;2023-12-22T03:23:32;11.50;;;2.60;;
27893;SDS011;15240;50.812;4.792;2023-12-22T03:26:02;10.10;;;2.30;;
27893;SDS011;15240;50.812;4.792;2023-12-22T03:28:28;10.47;;;2.07;;
27893;SDS011;15240;50.812;4.792;2023-12-22T03:30:54;11.43;;;2.30;;
27893;SDS011;15240;50.812;4.792;2023-12-22T03:33:20;10.87;;;2.33;;
27893;SDS011;15240;50.812;4.792;2023-12-22T03:35:46;12.90;;;2.63;;
27893;SDS011;15240;50.812;4.792;2023-12-22T03:38:12;11.13;;;2.33;;
27893;SDS011;15240;50.812;4.792;2023-12-22T03:40:38;12.83;;;2.37;;
27893;SDS011;15240;50.812;4.792;2023-12-22T03:43:04;9.87;;;2.43;;
27893;SDS011;15240;50.812;4.792;2023-12-22T03:45:30;13.10;;;2.20;;
27893;SDS011;15240;50.812;4.792;2023-12-22T03:47:56;11.47;;;2.10;;
27893;SDS011;15240;50.812;4.792;2023-12-22T03:50:22;13.07;;;2.10;;
27893;SDS011;15240;50.812;4.792;2023-12-22T03:52:49;18.10;;;2.73;;
27893;SDS011;15240;50.812;4.792;2023-12-22T03:55:15;12.90;;;2.63;;
27893;SDS011;15240;50.812;4.792;2023-12-22T03:57:41;17.07;;;3.00;;
27893;SDS011;15240;50.812;4.792;2023-12-22T04:00:08;17.13;;;2.90;;
27893;SDS011;15240;50.812;4.792;2023-12-22T04:02:34;17.93;;;3.43;;
27893;SDS011;15240;50.812;4.792;2023-12-22T04:05:02;14.20;;;3.33;;
27893;SDS011;15240;50.812;4.792;2023-12-22T04:07:28;20.33;;;3.77;;
27893;SDS011;15240;50.812;4.792;2023-12-22T04:09:55;19.00;;;3.30;;
27893;SDS011;15240;50.812;4.792;2023-12-22T04:12:21;16.73;;;3.13;;
27893;SDS011;15240;50.812;4.792;2023-12-22T04:14:47;16.20;;;3.50;;
27893;SDS011;15240;50.812;4.792;2023-12-22T04:17:13;18.03;;;3.60;;
27893;SDS011;15240;50.812;4.792;2023-12-22T04:19:39;18.07;;;2.93;;
27893;SDS011;15240;50.812;4.792;2023-12-22T04:22:05;17.13;;;3.57;;
27893;SDS011;15240;50.812;4.792;2023-12-22T04:24:31;11.67;;;2.73;;
27893;SDS011;15240;50.812;4.792;2023-12-22T04:26:57;15.47;;;3.10;;
27893;SDS011;15240;50.812;4.792;2023-12-22T04:29:23;12.97;;;2.70;;
27893;SDS011;15240;50.812;4.792;2023-12-22T04:31:49;17.50;;;2.87;;
27893;SDS011;15240;50.812;4.792;2023-12-22T04:34:15;15.40;;;3.00;;
27893;SDS011;15240;50.812;4.792;2023-12-22T04:36:41;17.33;;;3.30;;
27893;SDS011;15240;50.812;4.792;2023-12-22T04:39:07;18.57;;;3.30;;
27893;SDS011;15240;50.812;4.792;2023-12-22T04:41:33;17.40;;;3.63;;
27893;SDS011;15240;50.812;4.792;2023-12-22T04:43:59;13.93;;;2.73;;
27893;SDS011;15240;50.812;4.792;2023-12-22T04:46:28;19.57;;;3.57;;
27893;SDS011;15240;50.812;4.792;2023-12-22T04:48:55;20.43;;;4.20;;
27893;SDS011;15240;50.812;4.792;2023-12-22T04:51:21;20.80;;;4.60;;
27893;SDS011;15240;50.812;4.792;2023-12-22T04:53:47;20.83;;;3.67;;
27893;SDS011;15240;50.812;4.792;2023-12-22T04:56:13;18.50;;;4.00;;
27893;SDS011;15240;50.812;4.792;2023-12-22T04:58:39;23.27;;;4.60;;
27893;SDS011;15240;50.812;4.792;2023-12-22T05:01:05;20.60;;;3.87;;
27893;SDS011;15240;50.812;4.792;2023-12-22T05:03:31;21.50;;;4.17;;
27893;SDS011;15240;50.812;4.792;2023-12-22T05:05:57;22.10;;;4.17;;
27893;SDS011;15240;50.812;4.792;2023-12-22T05:08:23;20.27;;;4.10;;
27893;SDS011;15240;50.812;4.792;2023-12-22T05:10:49;19.97;;;4.53;;
27893;SDS011;15240;50.812;4.792;2023-12-22T05:13:15;22.83;;;4.53;;
27893;SDS011;15240;50.812;4.792;2023-12-22T05:15:41;27.60;;;5.00;;
27893;SDS011;15240;50.812;4.792;2023-12-22T05:18:08;29.97;;;4.80;;
27893;SDS011;15240;50.812;4.792;2023-12-22T05:20:34;27.97;;;5.23;;
27893;SDS011;15240;50.812;4.792;2023-12-22T05:23:00;28.40;;;4.43;;
27893;SDS011;15240;50.812;4.792;2023-12-22T05:25:26;21.83;;;4.80;;
27893;SDS011;15240;50.812;4.792;2023-12-22T05:27:52;23.50;;;4.57;;
27893;SDS011;15240;50.812;4.792;2023-12-22T05:30:18;25.63;;;4.73;;
27893;SDS011;15240;50.812;4.792;2023-12-22T05:32:44;25.20;;;4.57;;
27893;SDS011;15240;50.812;4.792;2023-12-22T05:35:10;24.00;;;4.93;;
27893;SDS011;15240;50.812;4.792;2023-12-22T05:37:36;28.93;;;5.00;;
27893;SDS011;15240;50.812;4.792;2023-12-22T05:40:02;20.33;;;4.93;;
27893;SDS011;15240;50.812;4.792;2023-12-22T05:42:31;25.83;;;4.90;;
27893;SDS011;15240;50.812;4.792;2023-12-22T05:44:57;19.77;;;4.50;;
27893;SDS011;15240;50.812;4.792;2023-12-22T05:47:23;30.20;;;5.33;;
27893;SDS011;15240;50.812;4.792;2023-12-22T05:49:49;25.53;;;5.07;;
27893;SDS011;15240;50.812;4.792;2023-12-22T05:52:15;28.37;;;5.10;;
27893;SDS011;15240;50.812;4.792;2023-12-22T05:54:41;30.27;;;4.90;;
27893;SDS011;15240;50.812;4.792;2023-12-22T05:57:07;26.67;;;5.43;;
27893;SDS011;15240;50.812;4.792;2023-12-22T05:59:33;30.83;;;5.17;;
27893;SDS011;15240;50.812;4.792;2023-12-22T06:02:00;24.20;;;5.03;;
27893;SDS011;15240;50.812;4.792;2023-12-22T06:04:26;25.60;;;5.03;;
27893;SDS011;15240;50.812;4.792;2023-12-22T06:06:52;28.27;;;5.07;;
27893;SDS011;15240;50.812;4.792;2023-12-22T06:09:18;23.63;;;5.37;;
27893;SDS011;15240;50.812;4.792;2023-12-22T06:11:47;25.10;;;5.37;;
27893;SDS011;15240;50.812;4.792;2023-12-22T06:14:13;28.50;;;5.03;;
27893;SDS011;15240;50.812;4.792;2023-12-22T06:16:39;24.60;;;5.17;;
27893;SDS011;15240;50.812;4.792;2023-12-22T06:19:05;28.63;;;7.37;;
27893;SDS011;15240;50.812;4.792;2023-12-22T06:21:31;25.00;;;4.93;;
27893;SDS011;15240;50.812;4.792;2023-12-22T06:23:57;24.90;;;4.80;;
27893;SDS011;15240;50.812;4.792;2023-12-22T06:26:23;28.13;;;5.10;;
27893;SDS011;15240;50.812;4.792;2023-12-22T06:28:49;26.57;;;5.30;;
27893;SDS011;15240;50.812;4.792;2023-12-22T06:31:16;28.53;;;5.07;;
27893;SDS011;15240;50.812;4.792;2023-12-22T06:33:46;26.17;;;5.47;;
27893;SDS011;15240;50.812;4.792;2023-12-22T06:36:19;20.00;;;4.57;;
27893;SDS011;15240;50.812;4.792;2023-12-22T06:38:46;25.47;;;4.27;;
27893;SDS011;15240;50.812;4.792;2023-12-22T06:44:04;23.40;;;4.50;;
27893;SDS011;15240;50.812;4.792;2023-12-22T06:46:30;23.80;;;4.43;;
27893;SDS011;15240;50.812;4.792;2023-12-22T06:48:57;19.97;;;4.27;;
27893;SDS011;15240;50.812;4.792;2023-12-22T06:51:27;21.63;;;4.07;;
27893;SDS011;15240;50.812;4.792;2023-12-22T06:53:53;22.33;;;4.23;;
27893;SDS011;15240;50.812;4.792;2023-12-22T06:58:49;19.53;;;4.40;;
27893;SDS011;15240;50.812;4.792;2023-12-22T07:01:22;14.63;;;3.87;;
27893;SDS011;15240;50.812;4.792;2023-12-22T07:03:49;19.23;;;3.83;;
27893;SDS011;15240;50.812;4.792;2023-12-22T07:06:17;15.83;;;3.60;;
27893;SDS011;15240;50.812;4.792;2023-12-22T07:08:44;15.73;;;5.40;;
27893;SDS011;15240;50.812;4.792;2023-12-22T07:11:22;18.87;;;3.50;;
27893;SDS011;15240;50.812;4.792;2023-12-22T07:13:48;15.47;;;3.37;;
27893;SDS011;15240;50.812;4.792;2023-12-22T07:16:15;13.43;;;3.23;;
27893;SDS011;15240;50.812;4.792;2023-12-22T07:18:42;14.50;;;2.97;;
27893;SDS011;15240;50.812;4.792;2023-12-22T07:21:08;20.13;;;3.27;;
27893;SDS011;15240;50.812;4.792;2023-12-22T07:23:41;13.73;;;3.13;;
27893;SDS011;15240;50.812;4.792;2023-12-22T07:26:09;14.60;;;3.40;;
27893;SDS011;15240;50.812;4.792;2023-12-22T07:28:36;11.07;;;2.87;;
27893;SDS011;15240;50.812;4.792;2023-12-22T07:31:02;14.23;;;2.70;;
27893;SDS011;15240;50.812;4.792;2023-12-22T07:33:28;11.03;;;3.13;;
27893;SDS011;15240;50.812;4.792;2023-12-22T07:35:54;11.30;;;2.80;;
27893;SDS011;15240;50.812;4.792;2023-12-22T07:38:21;12.90;;;2.73;;
27893;SDS011;15240;50.812;4.792;2023-12-22T07:40:47;11.73;;;2.20;;
27893;SDS011;15240;50.812;4.792;2023-12-22T07:43:13;14.83;;;2.93;;
27893;SDS011;15240;50.812;4.792;2023-12-22T07:45:39;7.53;;;2.17;;
27893;SDS011;15240;50.812;4.792;2023-12-22T07:48:05;13.50;;;2.50;;
27893;SDS011;15240;50.812;4.792;2023-12-22T07:50:32;14.13;;;2.70;;
27893;SDS011;15240;50.812;4.792;2023-12-22T07:52:58;11.50;;;2.47;;
27893;SDS011;15240;50.812;4.792;2023-12-22T07:55:24;9.60;;;2.20;;
27893;SDS011;15240;50.812;4.792;2023-12-22T07:57:50;8.90;;;2.50;;
27893;SDS011;15240;50.812;4.792;2023-12-22T08:00:17;8.73;;;2.43;;
27893;SDS011;15240;50.812;4.792;2023-12-22T08:02:43;8.03;;;2.20;;
27893;SDS011;15240;50.812;4.792;2023-12-22T08:05:09;8.23;;;2.23;;
27893;SDS011;15240;50.812;4.792;2023-12-22T08:07:35;8.77;;;2.40;;
27893;SDS011;15240;50.812;4.792;2023-12-22T08:10:03;10.37;;;2.23;;
27893;SDS011;15240;50.812;4.792;2023-12-22T08:12:29;8.40;;;2.27;;
27893;SDS011;15240;50.812;4.792;2023-12-22T08:14:57;11.03;;;2.40;;
27893;SDS011;15240;50.812;4.792;2023-12-22T08:17:23;10.33;;;2.77;;
27893;SDS011;15240;50.812;4.792;2023-12-22T08:19:49;9.70;;;2.10;;
27893;SDS011;15240;50.812;4.792;2023-12-22T08:22:15;8.40;;;1.87;;
27893;SDS011;15240;50.812;4.792;2023-12-22T08:24:41;6.63;;;1.70;;
27893;SDS011;15240;50.812;4.792;2023-12-22T08:27:08;8.33;;;1.90;;
27893;SDS011;15240;50.812;4.792;2023-12-22T08:29:34;5.03;;;1.80;;
27893;SDS011;15240;50.812;4.792;2023-12-22T08:32:00;5.90;;;1.80;;
27893;SDS011;15240;50.812;4.792;2023-12-22T08:34:26;5.67;;;1.53;;
27893;SDS011;15240;50.812;4.792;2023-12-22T08:36:53;8.47;;;2.03;;
27893;SDS011;15240;50.812;4.792;2023-12-22T08:39:19;5.70;;;1.70;;
27893;SDS011;15240;50.812;4.792;2023-12-22T08:41:45;4.73;;;1.83;;
27893;SDS011;15240;50.812;4.792;2023-12-22T08:44:11;3.37;;;1.47;;
27893;SDS011;15240;50.812;4.792;2023-12-22T08:46:39;4.80;;;2.20;;
27893;SDS011;15240;50.812;4.792;2023-12-22T08:49:06;5.00;;;2.00;;
27893;SDS011;15240;50.812;4.792;2023-12-22T08:51:32;4.93;;;2.30;;
27893;SDS011;15240;50.812;4.792;2023-12-22T08:54:01;7.23;;;2.20;;
27893;SDS011;15240;50.812;4.792;2023-12-22T08:56:29;6.37;;;2.10;;
27893;SDS011;15240;50.812;4.792;2023-12-22T08:58:55;5.70;;;2.03;;
27893;SDS011;15240;50.812;4.792;2023-12-22T09:01:23;5.63;;;2.43;;
27893;SDS011;15240;50.812;4.792;2023-12-22T09:03:50;5.07;;;2.20;;
27893;SDS011;15240;50.812;4.792;2023-12-22T09:06:18;7.40;;;2.73;;
27893;SDS011;15240;50.812;4.792;2023-12-22T09:08:44;3.67;;;2.07;;
27893;SDS011;15240;50.812;4.792;2023-12-22T09:11:11;6.33;;;2.60;;
27893;SDS011;15240;50.812;4.792;2023-12-22T09:13:37;6.07;;;2.50;;
27893;SDS011;15240;50.812;4.792;2023-12-22T09:16:04;6.17;;;3.13;;
27893;SDS011;15240;50.812;4.792;2023-12-22T09:18:30;5.50;;;2.87;;
27893;SDS011;15240;50.812;4.792;2023-12-22T09:20:56;5.77;;;3.47;;
27893;SDS011;15240;50.812;4.792;2023-12-22T09:23:23;6.27;;;3.13;;
27893;SDS011;15240;50.812;4.792;2023-12-22T09:25:49;7.57;;;3.40;;
27893;SDS011;15240;50.812;4.792;2023-12-22T09:28:15;9.70;;;3.93;;
27893;SDS011;15240;50.812;4.792;2023-12-22T09:30:41;5.63;;;3.87;;
27893;SDS011;15240;50.812;4.792;2023-12-22T09:33:08;6.97;;;3.63;;
27893;SDS011;15240;50.812;4.792;2023-12-22T09:35:34;8.47;;;4.67;;
27893;SDS011;15240;50.812;4.792;2023-12-22T09:38:01;8.83;;;3.70;;
27893;SDS011;15240;50.812;4.792;2023-12-22T09:40:27;8.20;;;4.10;;
27893;SDS011;15240;50.812;4.792;2023-12-22T09:42:56;7.47;;;4.10;;
27893;SDS011;15240;50.812;4.792;2023-12-22T09:45:23;10.43;;;4.30;;
27893;SDS011;15240;50.812;4.792;2023-12-22T09:47:50;8.33;;;3.77;;
27893;SDS011;15240;50.812;4.792;2023-12-22T09:50:17;9.40;;;4.50;;
27893;SDS011;15240;50.812;4.792;2023-12-22T09:52:43;7.37;;;3.87;;
27893;SDS011;15240;50.812;4.792;2023-12-22T09:55:09;6.80;;;4.20;;
27893;SDS011;15240;50.812;4.792;2023-12-22T09:57:36;8.37;;;4.43;;
27893;SDS011;15240;50.812;4.792;2023-12-22T10:00:04;12.87;;;4.30;;
27893;SDS011;15240;50.812;4.792;2023-12-22T10:02:33;8.93;;;3.83;;
27893;SDS011;15240;50.812;4.792;2023-12-22T10:05:00;8.97;;;3.80;;
27893;SDS011;15240;50.812;4.792;2023-12-22T10:07:26;7.00;;;3.40;;
27893;SDS011;15240;50.812;4.792;2023-12-22T10:09:52;8.07;;;3.13;;
27893;SDS011;15240;50.812;4.792;2023-12-22T10:12:20;5.20;;;2.97;;
27893;SDS011;15240;50.812;4.792;2023-12-22T10:14:47;9.37;;;2.70;;
27893;SDS011;15240;50.812;4.792;2023-12-22T10:17:13;8.17;;;2.53;;
27893;SDS011;15240;50.812;4.792;2023-12-22T10:19:40;5.93;;;2.70;;
27893;SDS011;15240;50.812;4.792;2023-12-22T10:22:06;6.43;;;2.40;;
27893;SDS011;15240;50.812;4.792;2023-12-22T10:24:45;7.10;;;2.20;;
27893;SDS011;15240;50.812;4.792;2023-12-22T10:27:16;9.47;;;2.27;;
27893;SDS011;15240;50.812;4.792;2023-12-22T10:29:55;3.77;;;1.57;;
27893;SDS011;15240;50.812;4.792;2023-12-22T10:32:21;4.80;;;1.97;;
27893;SDS011;15240;50.812;4.792;2023-12-22T10:34:48;5.40;;;2.20;;
27893;SDS011;15240;50.812;4.792;2023-12-22T10:37:14;5.07;;;1.77;;
27893;SDS011;15240;50.812;4.792;2023-12-22T10:39:41;4.40;;;1.40;;
27893;SDS011;15240;50.812;4.792;2023-12-22T10:42:07;6.57;;;1.60;;
27893;SDS011;15240;50.812;4.792;2023-12-22T10:44:34;3.50;;;1.40;;
27893;SDS011;15240;50.812;4.792;2023-12-22T10:47:01;3.83;;;1.57;;
27893;SDS011;15240;50.812;4.792;2023-12-22T10:49:27;3.03;;;1.70;;
27893;SDS011;15240;50.812;4.792;2023-12-22T10:51:54;4.37;;;1.63;;
27893;SDS011;15240;50.812;4.792;2023-12-22T10:54:20;4.93;;;1.70;;
27893;SDS011;15240;50.812;4.792;2023-12-22T10:56:46;6.00;;;1.80;;
27893;SDS011;15240;50.812;4.792;2023-12-22T10:59:12;4.43;;;1.93;;
27893;SDS011;15240;50.812;4.792;2023-12-22T11:01:38;4.20;;;1.83;;
27893;SDS011;15240;50.812;4.792;2023-12-22T11:04:08;4.70;;;1.80;;
27893;SDS011;15240;50.812;4.792;2023-12-22T11:06:36;4.73;;;2.10;;
27893;SDS011;15240;50.812;4.792;2023-12-22T11:09:08;5.67;;;2.10;;
27893;SDS011;15240;50.812;4.792;2023-12-22T11:11:38;3.97;;;2.33;;
27893;SDS011;15240;50.812;4.792;2023-12-22T11:14:05;4.13;;;2.40;;
27893;SDS011;15240;50.812;4.792;2023-12-22T11:16:32;6.43;;;2.80;;
27893;SDS011;15240;50.812;4.792;2023-12-22T11:18:59;6.47;;;2.80;;
27893;SDS011;15240;50.812;4.792;2023-12-22T11:21:26;5.43;;;2.53;;
27893;SDS011;15240;50.812;4.792;2023-12-22T11:23:53;6.40;;;2.53;;
27893;SDS011;15240;50.812;4.792;2023-12-22T11:26:20;4.67;;;2.73;;
27893;SDS011;15240;50.812;4.792;2023-12-22T11:28:47;4.97;;;2.50;;
27893;SDS011;15240;50.812;4.792;2023-12-22T11:31:14;4.20;;;2.40;;
27893;SDS011;15240;50.812;4.792;2023-12-22T11:33:43;3.07;;;1.83;;
27893;SDS011;15240;50.812;4.792;2023-12-22T11:36:09;5.23;;;1.70;;
27893;SDS011;15240;50.812;4.792;2023-12-22T11:38:36;4.87;;;1.80;;
27893;SDS011;15240;50.812;4.792;2023-12-22T11:41:03;6.27;;;1.80;;
27893;SDS011;15240;50.812;4.792;2023-12-22T11:43:30;4.77;;;1.90;;
27893;SDS011;15240;50.812;4.792;2023-12-22T11:46:00;3.23;;;1.63;;
27893;SDS011;15240;50.812;4.792;2023-12-22T11:48:27;3.83;;;1.50;;
27893;SDS011;15240;50.812;4.792;2023-12-22T11:50:53;4.30;;;1.97;;
27893;SDS011;15240;50.812;4.792;2023-12-22T11:53:23;4.37;;;1.60;;
27893;SDS011;15240;50.812;4.792;2023-12-22T11:58:41;8.43;;;4.77;;
27893;SDS011;15240;50.812;4.792;2023-12-22T12:03:37;6.90;;;2.70;;
27893;SDS011;15240;50.812;4.792;2023-12-22T12:08:39;4.60;;;2.10;;
27893;SDS011;15240;50.812;4.792;2023-12-22T12:11:06;4.37;;;2.43;;
27893;SDS011;15240;50.812;4.792;2023-12-22T12:13:33;5.80;;;2.50;;
27893;SDS011;15240;50.812;4.792;2023-12-22T12:15:59;9.47;;;4.63;;
27893;SDS011;15240;50.812;4.792;2023-12-22T12:18:29;4.43;;;1.77;;
27893;SDS011;15240;50.812;4.792;2023-12-22T12:21:01;5.97;;;2.70;;
27893;SDS011;15240;50.812;4.792;2023-12-22T12:23:27;7.13;;;3.47;;
27893;SDS011;15240;50.812;4.792;2023-12-22T12:25:54;10.80;;;4.20;;
27893;SDS011;15240;50.812;4.792;2023-12-22T12:28:28;4.73;;;2.70;;
27893;SDS011;15240;50.812;4.792;2023-12-22T12:31:01;5.47;;;2.50;;
27893;SDS011;15240;50.812;4.792;2023-12-22T12:33:28;8.97;;;3.73;;
27893;SDS011;15240;50.812;4.792;2023-12-22T12:35:59;11.33;;;4.93;;
27893;SDS011;15240;50.812;4.792;2023-12-22T12:41:11;6.73;;;2.47;;
27893;SDS011;15240;50.812;4.792;2023-12-22T12:43:40;5.13;;;1.90;;
27893;SDS011;15240;50.812;4.792;2023-12-22T12:46:07;6.63;;;2.80;;
27893;SDS011;15240;50.812;4.792;2023-12-22T12:48:33;2.87;;;1.43;;
27893;SDS011;15240;50.812;4.792;2023-12-22T12:51:05;3.47;;;1.77;;
27893;SDS011;15240;50.812;4.792;2023-12-22T12:53:32;6.87;;;2.57;;
27893;SDS011;15240;50.812;4.792;2023-12-22T12:55:58;7.83;;;2.43;;
27893;SDS011;15240;50.812;4.792;2023-12-22T12:58:28;7.10;;;2.63;;
27893;SDS011;15240;50.812;4.792;2023-12-22T13:01:03;10.57;;;3.50;;
27893;SDS011;15240;50.812;4.792;2023-12-22T13:03:29;6.03;;;2.07;;
27893;SDS011;15240;50.812;4.792;2023-12-22T13:06:07;7.40;;;2.37;;
27893;SDS011;15240;50.812;4.792;2023-12-22T13:08:34;8.60;;;2.93;;
27893;SDS011;15240;50.812;4.792;2023-12-22T13:11:00;6.63;;;2.10;;
27893;SDS011;15240;50.812;4.792;2023-12-22T13:13:27;8.73;;;1.90;;
27893;SDS011;15240;50.812;4.792;2023-12-22T13:15:53;4.67;;;1.63;;
27893;SDS011;15240;50.812;4.792;2023-12-22T13:18:19;6.97;;;1.90;;
27893;SDS011;15240;50.812;4.792;2023-12-22T13:20:46;17.03;;;10.23;;
27893;SDS011;15240;50.812;4.792;2023-12-22T13:23:12;19.30;;;12.60;;
27893;SDS011;15240;50.812;4.792;2023-12-22T13:25:42;11.47;;;2.27;;
27893;SDS011;15240;50.812;4.792;2023-12-22T13:28:08;8.13;;;4.20;;
27893;SDS011;15240;50.812;4.792;2023-12-22T13:30:38;4.53;;;1.47;;
27893;SDS011;15240;50.812;4.792;2023-12-22T13:33:09;6.80;;;2.53;;
27893;SDS011;15240;50.812;4.792;2023-12-22T13:35:35;9.70;;;3.93;;
27893;SDS011;15240;50.812;4.792;2023-12-22T13:38:02;9.37;;;1.77;;
27893;SDS011;15240;50.812;4.792;2023-12-22T13:40:31;14.63;;;6.63;;
27893;SDS011;15240;50.812;4.792;2023-12-22T13:42:58;6.00;;;2.40;;
27893;SDS011;15240;50.812;4.792;2023-12-22T13:45:24;9.87;;;4.60;;
27893;SDS011;15240;50.812;4.792;2023-12-22T13:47:50;8.57;;;2.40;;
27893;SDS011;15240;50.812;4.792;2023-12-22T13:50:17;8.10;;;2.50;;
27893;SDS011;15240;50.812;4.792;2023-12-22T13:52:43;6.40;;;1.87;;
27893;SDS011;15240;50.812;4.792;2023-12-22T13:55:13;6.73;;;1.97;;
27893;SDS011;15240;50.812;4.792;2023-12-22T13:57:40;6.40;;;1.87;;
27893;SDS011;15240;50.812;4.792;2023-12-22T14:00:28;3.83;;;1.70;;
27893;SDS011;15240;50.812;4.792;2023-12-22T14:02:54;8.53;;;1.93;;
27893;SDS011;15240;50.812;4.792;2023-12-22T14:05:20;10.37;;;2.90;;
27893;SDS011;15240;50.812;4.792;2023-12-22T14:07:46;10.50;;;3.33;;
27893;SDS011;15240;50.812;4.792;2023-12-22T14:10:13;10.90;;;2.80;;
27893;SDS011;15240;50.812;4.792;2023-12-22T14:12:39;6.33;;;2.50;;
27893;SDS011;15240;50.812;4.792;2023-12-22T14:15:09;10.83;;;4.70;;
27893;SDS011;15240;50.812;4.792;2023-12-22T14:17:36;12.93;;;5.80;;
27893;SDS011;15240;50.812;4.792;2023-12-22T14:20:02;12.47;;;4.93;;
27893;SDS011;15240;50.812;4.792;2023-12-22T14:22:30;14.77;;;5.87;;
27893;SDS011;15240;50.812;4.792;2023-12-22T14:24:56;6.83;;;2.60;;
27893;SDS011;15240;50.812;4.792;2023-12-22T14:27:25;10.10;;;4.30;;
27893;SDS011;15240;50.812;4.792;2023-12-22T14:29:51;9.90;;;2.53;;
27893;SDS011;15240;50.812;4.792;2023-12-22T14:32:17;8.73;;;2.60;;
27893;SDS011;15240;50.812;4.792;2023-12-22T14:34:47;9.10;;;3.00;;
27893;SDS011;15240;50.812;4.792;2023-12-22T14:37:14;9.07;;;2.00;;
27893;SDS011;15240;50.812;4.792;2023-12-22T14:39:44;7.13;;;3.23;;
27893;SDS011;15240;50.812;4.792;2023-12-22T14:42:10;7.93;;;2.90;;
27893;SDS011;15240;50.812;4.792;2023-12-22T14:44:36;10.53;;;4.27;;
27893;SDS011;15240;50.812;4.792;2023-12-22T14:47:03;9.37;;;3.73;;
27893;SDS011;15240;50.812;4.792;2023-12-22T14:49:30;5.53;;;1.93;;
27893;SDS011;15240;50.812;4.792;2023-12-22T14:51:56;7.70;;;2.43;;
27893;SDS011;15240;50.812;4.792;2023-12-22T14:54:23;8.00;;;3.07;;
27893;SDS011;15240;50.812;4.792;2023-12-22T14:56:49;10.60;;;3.17;;
27893;SDS011;15240;50.812;4.792;2023-12-22T14:59:16;10.70;;;4.37;;